• Join FlightAware (Why Join?)
  • Login
  • US Flag 
10:28PM EDT


 

Airport Tracker/Info


-or-


 

Live Flight TrackerFlight Track Log ✈ N6971Z ✈ 23-Apr-2012 ✈ KUZA - KRDU

Flight Track Log - Related Links

Times and Time Zones

All times are in EDT time to prevent confusion due to time zone crossing. See the N6971Z flight status page for this flight to view local times or setup timezone preferences in your user account.

Time Position Orientation Groundspeed Altitude Reporting Facility
EDT Latitude Longitude Course Direction KTS MPH feet Rate Location/Type
12:38PM 34.9944 -81.0558 334° Northwest 99 114 1,000  Level FAA TRACON SMA TRACON (SMA)
12:38PM 35.0144 -81.0675 238° Southwest 140 161 2,000 1,560 Climbing FAA TRACON SMA TRACON (SMA)
12:39PM 35.0022 -81.0914 171° South 150 173 3,100 1,620 Climbing FAA TRACON SMA TRACON (SMA)
12:40PM 34.9703 -81.0856 167° South 172 198 4,300 1,680 Climbing FAA TRACON SMA TRACON (SMA)
12:40PM 34.9378 -81.0761 103° East 182 209 5,400 1,800 Climbing FAA TRACON SMA TRACON (SMA)
12:41PM 34.9308 -81.0408 71° East 176 203 6,600 1,860 Climbing FAA TRACON SMA TRACON (SMA)
12:42PM 34.9406 -81.0056 75° East 165 190 7,900 1,800 Climbing FAA TRACON SMA TRACON (SMA)
12:42PM 34.9486 -80.9686 71° East 162 186 9,100 1,620 Climbing FAA TRACON SMA TRACON (SMA)
12:43PM 34.9583 -80.9347 72° East 161 185 10,100 1,500 Climbing FAA TRACON SMA TRACON (SMA)
12:44PM 34.9681 -80.8981 72° East 167 192 11,100 1,500 Climbing FAA TRACON SMA TRACON (SMA)
12:44PM 34.9786 -80.8578 71° East 177 204 12,100 1,260 Climbing FAA TRACON SMA TRACON (SMA)
12:45PM 34.9892 -80.8194 72° East 188 216 12,800 660 Climbing FAA TRACON SMA TRACON (SMA)
12:46PM 35.0025 -80.7694 72° East 220 253 13,000 60 Climbing FAA TRACON SMA TRACON (SMA)
12:46PM 35.0172 -80.7147 72° East 239 275 12,900  Descending FAA TRACON SMA TRACON (SMA)
12:47PM 35.0308 -80.6642 72° East 251 289 13,000 60 Climbing FAA TRACON SMA TRACON (SMA)
12:48PM 35.0461 -80.6056 72° East 259 298 13,000  Level FAA TRACON SMA TRACON (SMA)
12:48PM 35.0617 -80.5461 72° East 262 302 13,000 -120 Level FAA TRACON SMA TRACON (SMA)
12:49PM 35.0758 -80.4933 72° East 264 304 12,900 -120 Descending FAA TRACON SMA TRACON (SMA)
12:50PM 35.0919 -80.4339 72° East 265 305 12,900  Level FAA TRACON SMA TRACON (SMA)
12:50PM 35.1075 -80.3736 72° East 267 307 12,900  Level FAA TRACON SMA TRACON (SMA)
12:51PM 35.1219 -80.3200 72° East 268 308 12,900 60 Level FAA TRACON SMA TRACON (SMA)
12:52PM 35.1381 -80.2597 72° East 268 308 13,000 60 Climbing FAA TRACON SMA TRACON (SMA)
12:52PM 35.1539 -80.1994 72° East 269 310 13,000  Level FAA TRACON SMA TRACON (SMA)
12:53PM 35.1678 -80.1461 73° East 268 308 13,000  Level FAA TRACON SMA TRACON (SMA)
12:54PM 35.1831 -80.0858 72° East 266 306 13,000  Level FAA TRACON SMA TRACON (SMA)
12:54PM 35.1953 -80.0389 74° East 268 308 13,000  Level FAA TRACON SMA TRACON (SMA)
12:55PM 35.2117 -79.9706 96° East 271 312 13,000  Level FAA TRACON SMA TRACON (SMA)
12:56PM 35.2103 -79.9556 89° East 275 316 13,000  Level FAA TRACON SMA TRACON (SMA)
12:57PM 35.2125 -79.7817 62° Northeast 273 314 13,000 -180 Level Washington Center
12:58PM 35.2467 -79.7044 44° Northeast 254 292 12,700 -420 Descending Washington Center
12:59PM 35.3031 -79.6386 45° Northeast 263 303 12,200 -540 Descending Washington Center
01:00PM 35.3597 -79.5703 46° Northeast 278 320 11,700 -600 Descending Washington Center
01:01PM 35.4119 -79.5039 45° Northeast 279 321 11,100 -300 Descending Washington Center
01:02PM 35.4642 -79.4403 46° Northeast 268 308 11,100  Level Washington Center
01:03PM 35.5119 -79.3789 54° Northeast 258 297 11,100 -60 Level Washington Center
01:04PM 35.5539 -79.3067 52° Northeast 255 293 11,000 -120 Descending Washington Center
01:05PM 35.5978 -79.2372 54° Northeast 247 284 10,900 -600 Descending Washington Center
01:06PM 35.6394 -79.1675 53° Northeast 253 291 9,800 -1,020 Descending Washington Center
01:07PM 35.6789 -79.1028 52° Northeast 242 278 8,900 -960 Descending Washington Center
01:08PM 35.7139 -79.0481 53° Northeast 237 273 8,000 -420 Descending Washington Center
01:10PM 35.7708 -78.9533 66° East 220 253 8,000  Level Washington Center
01:11PM 35.8003 -78.8725 79° East 232 267 8,000  Level Washington Center
01:11PM 35.8078 -78.8269 75° East 238 274 8,000 -180 Level Washington Center
01:12PM 35.8267 -78.7406 51° Northeast 240 276 7,800 -600 Descending Washington Center
01:13PM 35.8681 -78.6781 46° Northeast 216 249 6,800 -1,080 Descending Washington Center
01:14PM 35.9089 -78.6258 46° Northeast 209 241 5,600 -1,260 Descending Washington Center
01:15PM 35.9500 -78.5733 352° North 209 241 4,300 -1,380 Descending Washington Center
01:16PM 35.9914 -78.5803 268° West 183 211 3,100 -720 Descending Washington Center
01:17PM 35.9903 -78.6314 223° Southwest 171 197 2,900 -180 Descending Washington Center
01:18PM 35.9558 -78.6711 231° Southwest 171 197 2,800 -360 Descending Washington Center
01:19PM 35.9233 -78.7211 226° Southwest 181 208 2,200 -840 Descending Washington Center
01:21PM 35.8886 -78.7661 226° Southwest 111 128 800 -1,020 Descending Washington Center